Time;durP1;ratioP1;P1;durP2;ratioP2;P2;SDS_P1;SDS_P2;PMS_P1;PMS_P2;Temp;Humidity;BMP_temperature;BMP_pressure;BME280_temperature;BME280_humidity;BME280_pressure;Samples;Min_cycle;Max_cycle;Signal;HPM_P1;HPM_P2
2022/09/16 00:00:24;;;;;;;20.48;10.80;;;;;;;;;;5094114;28;20534;-73
2022/09/16 00:03:28;;;;;;;23.88;11.45;;;;;;;;;;5094360;28;20043;-73
2022/09/16 00:06:33;;;;;;;19.73;12.05;;;;;;;;;;5093645;28;20051;-72
2022/09/16 00:09:37;;;;;;;23.95;11.32;;;;;;;;;;5094348;28;20391;-74
2022/09/16 00:12:42;;;;;;;21.65;12.35;;;;;;;;;;5093761;28;20055;-72
2022/09/16 00:15:49;;;;;;;23.67;11.98;;;;;;;;;;5093715;28;20062;-73
2022/09/16 00:18:58;;;;;;;23.98;12.82;;;;;;;;;;5092678;28;20047;-72
2022/09/16 00:22:02;;;;;;;25.30;12.05;;;;;;;;;;5092974;28;20047;-73
2022/09/16 00:25:06;;;;;;;26.02;12.70;;;;;;;;;;5093595;28;20066;-73
2022/09/16 00:28:11;;;;;;;28.23;12.65;;;;;;;;;;5093024;28;20051;-73
2022/09/16 00:31:15;;;;;;;26.58;12.57;;;;;;;;;;5093198;28;20063;-73
2022/09/16 00:34:19;;;;;;;24.55;11.80;;;;;;;;;;5093343;28;20199;-74
2022/09/16 00:37:24;;;;;;;24.83;12.82;;;;;;;;;;5092288;28;20050;-73
2022/09/16 00:40:28;;;;;;;26.20;13.73;;;;;;;;;;5093427;28;20519;-73
2022/09/16 00:43:51;;;;;;;23.50;13.70;;;;;;;;;;5093441;28;20047;-73
2022/09/16 00:46:55;;;;;;;22.55;13.00;;;;;;;;;;5093065;28;20051;-72
2022/09/16 00:50:06;;;;;;;23.08;13.35;;;;;;;;;;5092259;28;20051;-73
2022/09/16 00:53:30;;;;;;;24.95;13.55;;;;;;;;;;5092337;28;20039;-73
2022/09/16 00:56:36;;;;;;;20.85;13.40;;;;;;;;;;5091510;28;20391;-73
2022/09/16 00:59:47;;;;;;;24.98;12.00;;;;;;;;;;5092700;28;20039;-73
2022/09/16 01:02:51;;;;;;;21.73;10.93;;;;;;;;;;5093000;28;20075;-74
2022/09/16 01:05:56;;;;;;;20.10;10.80;;;;;;;;;;5091896;28;20051;-73
2022/09/16 01:09:01;;;;;;;21.42;10.80;;;;;;;;;;5091626;28;20058;-73
2022/09/16 01:12:05;;;;;;;18.63;10.07;;;;;;;;;;5091778;28;20062;-72
2022/09/16 01:15:10;;;;;;;18.17;8.73;;;;;;;;;;5091734;28;20043;-73
2022/09/16 01:18:20;;;;;;;17.05;8.82;;;;;;;;;;5092445;28;20043;-73
2022/09/16 01:21:27;;;;;;;14.37;8.30;;;;;;;;;;5092626;28;20028;-73
2022/09/16 01:24:51;;;;;;;14.38;7.45;;;;;;;;;;5092016;28;20665;-73
2022/09/16 01:28:08;;;;;;;12.32;6.47;;;;;;;;;;5092012;28;20425;-73
2022/09/16 01:31:20;;;;;;;12.27;5.90;;;;;;;;;;5091951;28;20028;-73
2022/09/16 01:34:36;;;;;;;12.85;6.47;;;;;;;;;;5092003;28;20399;-73
2022/09/16 01:37:43;;;;;;;16.85;6.63;;;;;;;;;;5092017;28;20047;-73
2022/09/16 01:41:01;;;;;;;14.93;6.65;;;;;;;;;;5092104;28;20098;-73
2022/09/16 01:44:19;;;;;;;14.48;6.80;;;;;;;;;;5091198;28;20480;-73
2022/09/16 01:47:32;;;;;;;22.35;6.13;;;;;;;;;;5091269;28;20044;-74
2022/09/16 01:50:40;;;;;;;15.35;6.25;;;;;;;;;;5091700;28;20396;-73
2022/09/16 01:53:50;;;;;;;14.68;6.18;;;;;;;;;;5091788;28;20049;-74
2022/09/16 01:57:07;;;;;;;11.77;6.37;;;;;;;;;;5091972;28;20043;-73
2022/09/16 02:00:13;;;;;;;12.48;6.45;;;;;;;;;;5092235;28;20550;-73
2022/09/16 02:03:25;;;;;;;15.32;6.32;;;;;;;;;;5091438;28;20540;-72
2022/09/16 02:06:30;;;;;;;14.73;6.28;;;;;;;;;;5091726;28;20047;-73
2022/09/16 02:09:39;;;;;;;13.32;5.68;;;;;;;;;;5091151;28;20530;-73
2022/09/16 02:12:44;;;;;;;10.93;5.65;;;;;;;;;;5091504;28;20388;-72
2022/09/16 02:15:50;;;;;;;11.52;5.47;;;;;;;;;;5091496;28;20393;-74
2022/09/16 02:18:58;;;;;;;14.18;6.53;;;;;;;;;;5091353;28;20032;-73
2022/09/16 02:22:04;;;;;;;10.93;6.18;;;;;;;;;;5091424;28;20389;-72
2022/09/16 02:25:09;;;;;;;12.13;5.30;;;;;;;;;;5090359;28;20052;-73
2022/09/16 02:28:19;;;;;;;13.90;5.07;;;;;;;;;;5090911;28;20048;-73
2022/09/16 02:31:26;;;;;;;12.80;4.28;;;;;;;;;;5091455;28;20503;-73
2022/09/16 02:34:38;;;;;;;10.32;4.43;;;;;;;;;;5090722;28;20369;-73
2022/09/16 02:37:49;;;;;;;11.70;4.57;;;;;;;;;;5091081;28;20032;-74
2022/09/16 02:40:55;;;;;;;10.20;3.67;;;;;;;;;;5091210;28;20047;-73
2022/09/16 02:44:00;;;;;;;8.70;4.10;;;;;;;;;;5091226;28;20036;-73
2022/09/16 02:47:07;;;;;;;7.95;4.05;;;;;;;;;;5090918;28;20036;-73
2022/09/16 02:50:15;;;;;;;8.00;3.80;;;;;;;;;;5091303;28;20032;-73
2022/09/16 02:53:25;;;;;;;13.68;4.32;;;;;;;;;;5078793;28;20036;-73
2022/09/16 02:56:31;;;;;;;9.02;4.50;;;;;;;;;;5091369;28;20387;-73
2022/09/16 02:59:37;;;;;;;12.43;4.32;;;;;;;;;;5089810;28;20032;-73
2022/09/16 03:02:41;;;;;;;8.88;4.40;;;;;;;;;;5090452;28;20032;-73
2022/09/16 03:06:01;;;;;;;8.73;3.78;;;;;;;;;;5089921;28;20052;-73
2022/09/16 03:09:07;;;;;;;12.18;3.92;;;;;;;;;;5090714;28;20040;-72
2022/09/16 03:12:19;;;;;;;9.85;3.80;;;;;;;;;;5090042;28;20035;-73
2022/09/16 03:15:36;;;;;;;8.68;3.67;;;;;;;;;;5078296;28;20040;-73
2022/09/16 03:18:52;;;;;;;13.13;3.00;;;;;;;;;;5090987;28;20036;-73
2022/09/16 03:22:09;;;;;;;6.80;2.83;;;;;;;;;;5094831;28;20036;-73
2022/09/16 03:25:19;;;;;;;7.35;3.28;;;;;;;;;;5094662;28;20290;-73
2022/09/16 03:28:34;;;;;;;8.15;3.40;;;;;;;;;;5081953;28;20044;-72
2022/09/16 03:31:38;;;;;;;6.32;2.80;;;;;;;;;;5094616;28;20032;-73
2022/09/16 03:34:53;;;;;;;5.82;2.55;;;;;;;;;;5094675;28;20040;-73
2022/09/16 03:37:59;;;;;;;7.57;3.03;;;;;;;;;;5094544;28;20032;-74
2022/09/16 03:41:04;;;;;;;6.53;2.40;;;;;;;;;;5082050;28;20040;-73
2022/09/16 03:44:08;;;;;;;7.75;2.70;;;;;;;;;;5093789;28;20036;-73
2022/09/16 03:47:12;;;;;;;7.43;2.50;;;;;;;;;;5094233;28;20040;-73
2022/09/16 03:50:17;;;;;;;8.73;2.65;;;;;;;;;;5093555;28;20040;-74
2022/09/16 03:53:21;;;;;;;6.50;2.42;;;;;;;;;;5093865;28;20044;-73
2022/09/16 03:56:25;;;;;;;9.95;2.60;;;;;;;;;;5094327;28;20032;-73
2022/09/16 03:59:30;;;;;;;5.13;2.45;;;;;;;;;;5094059;28;20040;-73
2022/09/16 04:02:34;;;;;;;4.80;2.47;;;;;;;;;;5094034;28;20040;-73
2022/09/16 04:05:39;;;;;;;5.80;2.22;;;;;;;;;;5092893;28;20385;-74
2022/09/16 04:08:43;;;;;;;7.85;3.03;;;;;;;;;;5094162;28;20040;-73
2022/09/16 04:11:48;;;;;;;8.35;2.70;;;;;;;;;;5093846;28;20039;-73
2022/09/16 04:14:52;;;;;;;7.90;2.70;;;;;;;;;;5094028;28;20044;-73
2022/09/16 04:17:56;;;;;;;6.88;2.72;;;;;;;;;;5092699;28;20036;-73
2022/09/16 04:21:01;;;;;;;14.40;2.88;;;;;;;;;;5093739;28;20369;-73
2022/09/16 04:24:06;;;;;;;5.90;2.78;;;;;;;;;;5093802;28;20486;-73
2022/09/16 04:27:10;;;;;;;7.45;3.10;;;;;;;;;;5092391;28;20484;-73
2022/09/16 04:30:15;;;;;;;9.10;3.05;;;;;;;;;;5092855;28;20036;-73
2022/09/16 04:33:19;;;;;;;6.75;2.67;;;;;;;;;;5093653;28;20040;-73
2022/09/16 04:36:24;;;;;;;8.15;3.20;;;;;;;;;;5093426;28;20055;-73
2022/09/16 04:39:28;;;;;;;12.13;5.20;;;;;;;;;;5092216;28;20028;-73
2022/09/16 04:42:32;;;;;;;10.98;5.50;;;;;;;;;;5093248;28;20028;-73
2022/09/16 04:45:37;;;;;;;12.60;4.70;;;;;;;;;;5093102;28;20051;-73
2022/09/16 04:48:41;;;;;;;12.90;4.03;;;;;;;;;;5092166;28;20028;-73
2022/09/16 04:51:45;;;;;;;9.20;3.40;;;;;;;;;;5092792;28;20036;-73
2022/09/16 04:54:50;;;;;;;16.63;4.22;;;;;;;;;;5093090;28;20040;-73
2022/09/16 04:57:54;;;;;;;14.00;3.63;;;;;;;;;;5091653;28;20039;-74
2022/09/16 05:01:03;;;;;;;14.90;4.55;;;;;;;;;;5092720;28;20209;-73
2022/09/16 05:04:08;;;;;;;13.35;4.65;;;;;;;;;;5092706;28;20032;-74
2022/09/16 05:07:13;;;;;;;19.02;4.95;;;;;;;;;;5092748;28;20051;-73
2022/09/16 05:10:17;;;;;;;18.17;5.63;;;;;;;;;;5092443;28;20040;-74
2022/09/16 05:13:22;;;;;;;19.05;6.10;;;;;;;;;;5092350;28;20036;-74
2022/09/16 05:16:27;;;;;;;24.48;7.57;;;;;;;;;;5092725;28;20044;-80
2022/09/16 05:19:31;;;;;;;16.42;6.55;;;;;;;;;;5091461;28;20238;-78
2022/09/16 05:22:36;;;;;;;11.85;4.50;;;;;;;;;;5092145;28;20039;-80
2022/09/16 05:25:40;;;;;;;15.48;4.15;;;;;;;;;;5092116;28;20403;-81
2022/09/16 05:28:44;;;;;;;12.45;4.10;;;;;;;;;;5092286;28;20044;-81
2022/09/16 05:31:49;;;;;;;10.10;3.85;;;;;;;;;;5092207;28;20501;-80
2022/09/16 05:34:54;;;;;;;15.15;4.35;;;;;;;;;;5092283;28;20480;-81
2022/09/16 05:37:58;;;;;;;14.40;5.30;;;;;;;;;;5091957;28;20423;-78
2022/09/16 05:41:03;;;;;;;13.60;5.40;;;;;;;;;;5090972;28;20073;-78
2022/09/16 05:44:07;;;;;;;12.82;6.15;;;;;;;;;;5068037;28;20032;-79
2022/09/16 05:47:11;;;;;;;11.73;3.53;;;;;;;;;;5092149;28;20036;-79
2022/09/16 05:50:16;;;;;;;13.95;3.95;;;;;;;;;;5092048;28;20036;-75
2022/09/16 05:53:21;;;;;;;8.88;4.13;;;;;;;;;;5079056;28;20039;-81
2022/09/16 05:56:27;;;;;;;11.95;4.53;;;;;;;;;;5091672;28;20036;-81
2022/09/16 05:59:32;;;;;;;11.02;4.88;;;;;;;;;;5091831;28;20498;-81
2022/09/16 06:02:36;;;;;;;25.77;5.93;;;;;;;;;;5091416;28;20036;-81
2022/09/16 06:05:40;;;;;;;29.10;6.50;;;;;;;;;;5091518;28;20040;-80
2022/09/16 06:08:45;;;;;;;41.10;8.13;;;;;;;;;;5091650;28;20039;-81
2022/09/16 06:11:50;;;;;;;46.33;8.57;;;;;;;;;;5091667;28;20043;-78
2022/09/16 06:14:54;;;;;;;47.75;8.45;;;;;;;;;;5091278;28;20193;-76
2022/09/16 06:17:59;;;;;;;45.72;8.38;;;;;;;;;;5078623;28;20385;-76
2022/09/16 06:21:06;;;;;;;30.52;7.13;;;;;;;;;;5091089;28;20043;-75
2022/09/16 06:24:11;;;;;;;37.42;7.05;;;;;;;;;;5091549;28;20032;-80
2022/09/16 06:27:16;;;;;;;32.13;6.55;;;;;;;;;;5090594;28;20055;-83
2022/09/16 06:30:20;;;;;;;24.02;5.95;;;;;;;;;;5091635;28;20238;-86
2022/09/16 06:33:25;;;;;;;30.58;6.03;;;;;;;;;;5091447;28;20046;-82
2022/09/16 06:36:30;;;;;;;35.22;7.03;;;;;;;;;;5091349;28;20028;-84
2022/09/16 06:39:35;;;;;;;28.30;4.97;;;;;;;;;;5091287;28;20044;-81
2022/09/16 06:42:39;;;;;;;24.08;6.03;;;;;;;;;;5091211;28;20043;-83
2022/09/16 06:45:45;;;;;;;28.33;5.82;;;;;;;;;;5067009;28;20048;-85
2022/09/16 06:48:51;;;;;;;25.52;5.53;;;;;;;;;;5091467;28;20392;-84
2022/09/16 06:51:55;;;;;;;23.75;5.43;;;;;;;;;;5091749;28;20049;-82
2022/09/16 06:55:00;;;;;;;24.77;5.43;;;;;;;;;;5094541;28;20056;-78
2022/09/16 06:58:04;;;;;;;28.70;6.03;;;;;;;;;;5095134;28;20040;-78
2022/09/16 07:01:10;;;;;;;21.50;5.45;;;;;;;;;;5094955;28;20040;-77
2022/09/16 07:04:14;;;;;;;25.02;5.50;;;;;;;;;;5094854;28;20040;-79
2022/09/16 07:07:19;;;;;;;18.90;5.60;;;;;;;;;;5095220;28;20051;-81
2022/09/16 07:10:24;;;;;;;21.30;6.03;;;;;;;;;;5094278;28;20047;-80
2022/09/16 07:13:28;;;;;;;17.00;4.68;;;;;;;;;;5094785;28;20044;-77
2022/09/16 07:16:33;;;;;;;18.48;5.50;;;;;;;;;;5094880;28;20040;-81
2022/09/16 07:19:37;;;;;;;19.27;5.35;;;;;;;;;;5094095;28;20040;-81
2022/09/16 07:22:41;;;;;;;14.52;5.15;;;;;;;;;;5093809;28;20518;-81
2022/09/16 07:25:46;;;;;;;22.30;5.63;;;;;;;;;;5094503;28;20051;-78
2022/09/16 07:28:50;;;;;;;20.42;5.45;;;;;;;;;;5093859;28;20248;-78
2022/09/16 07:31:54;;;;;;;20.60;5.45;;;;;;;;;;5093507;28;20028;-79
2022/09/16 07:34:59;;;;;;;17.08;5.78;;;;;;;;;;5093567;28;20506;-80
2022/09/16 07:38:03;;;;;;;17.17;4.97;;;;;;;;;;5094274;28;20047;-80
2022/09/16 07:41:10;;;;;;;22.38;5.13;;;;;;;;;;5093520;28;20043;-80
2022/09/16 07:44:17;;;;;;;18.48;5.35;;;;;;;;;;5093902;28;20059;-79
2022/09/16 07:47:21;;;;;;;18.50;4.70;;;;;;;;;;5092951;28;20052;-81
2022/09/16 07:50:26;;;;;;;14.02;4.82;;;;;;;;;;5094309;28;20032;-78
2022/09/16 07:53:31;;;;;;;21.95;5.97;;;;;;;;;;5082063;28;20040;-77
2022/09/16 07:56:37;;;;;;;18.00;5.13;;;;;;;;;;5094383;28;20047;-80
2022/09/16 07:59:41;;;;;;;17.73;5.53;;;;;;;;;;5093390;28;20043;-80
2022/09/16 08:02:46;;;;;;;16.73;5.40;;;;;;;;;;5093251;28;20507;-79
2022/09/16 08:05:50;;;;;;;15.95;5.28;;;;;;;;;;5091780;28;20057;-77
2022/09/16 08:08:55;;;;;;;17.08;4.95;;;;;;;;;;5094184;28;20032;-80
2022/09/16 08:12:01;;;;;;;18.15;5.18;;;;;;;;;;5093752;28;20040;-78
2022/09/16 08:15:06;;;;;;;16.33;4.68;;;;;;;;;;5093527;28;20369;-77
2022/09/16 08:18:10;;;;;;;19.98;4.85;;;;;;;;;;5097932;28;20042;-76
2022/09/16 08:21:16;;;;;;;16.05;4.80;;;;;;;;;;5093082;28;20062;-82
2022/09/16 08:24:20;;;;;;;19.60;5.05;;;;;;;;;;5092998;28;20244;-77
2022/09/16 08:27:25;;;;;;;17.08;4.40;;;;;;;;;;5093317;28;20044;-78
2022/09/16 08:30:30;;;;;;;18.15;4.72;;;;;;;;;;5093502;28;20036;-80
2022/09/16 08:33:34;;;;;;;13.52;4.10;;;;;;;;;;5093454;28;20039;-77
2022/09/16 08:36:39;;;;;;;26.15;5.05;;;;;;;;;;5092876;28;20039;-82
2022/09/16 08:39:43;;;;;;;14.90;4.50;;;;;;;;;;5093202;28;20036;-81
2022/09/16 08:43:02;;;;;;;17.35;4.65;;;;;;;;;;5093328;28;20032;-80
2022/09/16 08:46:15;;;;;;;22.27;4.82;;;;;;;;;;5092325;28;20151;-80
2022/09/16 08:49:21;;;;;;;14.15;4.82;;;;;;;;;;5080417;28;20068;-76
2022/09/16 08:52:32;;;;;;;18.90;4.75;;;;;;;;;;5092864;28;20042;-76
2022/09/16 08:55:39;;;;;;;23.33;6.35;;;;;;;;;;5092863;28;20043;-75
2022/09/16 08:58:47;;;;;;;19.65;6.13;;;;;;;;;;5091547;28;20047;-77
2022/09/16 09:01:56;;;;;;;29.55;6.05;;;;;;;;;;5092407;28;20041;-74
2022/09/16 09:05:02;;;;;;;45.72;7.80;;;;;;;;;;5091531;28;20043;-78
2022/09/16 09:08:25;;;;;;;41.58;7.70;;;;;;;;;;5092701;28;20051;-76
2022/09/16 09:12:08;;;;;;;35.40;6.22;;;;;;;;;;5091721;28;20376;-81
2022/09/16 09:15:29;;;;;;;34.80;6.80;;;;;;;;;;5090103;28;20198;-77
2022/09/16 09:18:51;;;;;;;34.05;8.07;;;;;;;;;;5089789;28;20040;-77
2022/09/16 09:22:22;;;;;;;31.35;6.22;;;;;;;;;;5092398;28;20050;-82
2022/09/16 09:25:34;;;;;;;33.13;6.63;;;;;;;;;;5092185;28;20040;-83
2022/09/16 09:28:38;;;;;;;28.20;6.25;;;;;;;;;;5091506;28;20365;-77
2022/09/16 09:31:48;;;;;;;33.40;5.93;;;;;;;;;;5091035;28;20529;-73
2022/09/16 09:35:01;;;;;;;32.08;6.18;;;;;;;;;;5091950;28;20035;-79
2022/09/16 09:38:24;;;;;;;27.17;5.28;;;;;;;;;;5091766;28;20036;-83
2022/09/16 09:41:35;;;;;;;29.75;5.40;;;;;;;;;;5091787;28;20042;-78
2022/09/16 09:44:50;;;;;;;21.55;4.95;;;;;;;;;;5091961;28;20040;-79
2022/09/16 09:48:07;;;;;;;20.00;5.65;;;;;;;;;;5090357;28;20060;-79
2022/09/16 09:51:44;;;;;;;22.20;4.45;;;;;;;;;;5091855;28;20040;-78
2022/09/16 09:54:49;;;;;;;21.45;5.15;;;;;;;;;;5090395;28;20407;-78
2022/09/16 09:58:01;;;;;;;26.73;4.35;;;;;;;;;;5090528;28;20047;-79
2022/09/16 10:01:05;;;;;;;33.50;4.80;;;;;;;;;;5091540;28;20067;-79
2022/09/16 10:04:16;;;;;;;23.52;5.25;;;;;;;;;;5090214;28;20036;-79
2022/09/16 10:07:22;;;;;;;28.48;5.20;;;;;;;;;;5091263;28;20040;-80
2022/09/16 10:10:28;;;;;;;27.88;4.85;;;;;;;;;;5091119;28;20039;-76
2022/09/16 10:13:32;;;;;;;24.67;5.47;;;;;;;;;;5090243;28;20043;-77
2022/09/16 10:16:37;;;;;;;24.35;5.03;;;;;;;;;;5090819;28;20032;-77
2022/09/16 10:19:56;;;;;;;23.70;4.75;;;;;;;;;;5091085;28;20298;-77
2022/09/16 10:23:02;;;;;;;29.58;5.45;;;;;;;;;;5078421;28;20032;-79
2022/09/16 10:26:07;;;;;;;19.67;4.72;;;;;;;;;;5090879;28;20043;-78
2022/09/16 10:29:16;;;;;;;23.90;5.07;;;;;;;;;;5090019;28;20043;-77
2022/09/16 10:32:20;;;;;;;22.38;4.85;;;;;;;;;;5091074;28;20499;-77
2022/09/16 10:35:26;;;;;;;32.10;6.05;;;;;;;;;;5090995;28;20425;-77
2022/09/16 10:38:38;;;;;;;23.63;5.28;;;;;;;;;;5090764;28;20036;-79
2022/09/16 10:41:45;;;;;;;19.17;4.25;;;;;;;;;;5089971;28;20036;-78
2022/09/16 10:44:51;;;;;;;24.83;5.13;;;;;;;;;;5091269;28;20044;-78
2022/09/16 10:47:59;;;;;;;20.45;5.13;;;;;;;;;;5089820;28;20059;-78
2022/09/16 10:51:06;;;;;;;24.48;5.10;;;;;;;;;;5090842;28;20518;-78
2022/09/16 10:54:22;;;;;;;20.20;5.07;;;;;;;;;;5089990;28;20040;-78
2022/09/16 10:57:30;;;;;;;21.52;4.85;;;;;;;;;;5090890;28;20049;-78
2022/09/16 11:00:55;;;;;;;27.98;5.95;;;;;;;;;;5090812;28;20040;-79
2022/09/16 11:04:05;;;;;;;32.80;5.93;;;;;;;;;;5090846;28;20384;-79
2022/09/16 11:07:18;;;;;;;28.65;5.63;;;;;;;;;;5090586;28;20515;-78
2022/09/16 11:10:29;;;;;;;22.38;4.47;;;;;;;;;;5090930;28;20044;-79
2022/09/16 11:13:36;;;;;;;27.42;4.65;;;;;;;;;;5090134;28;20040;-79
2022/09/16 11:16:52;;;;;;;22.33;4.50;;;;;;;;;;5090038;28;20032;-78
2022/09/16 11:20:24;;;;;;;26.48;4.97;;;;;;;;;;5091000;28;20365;-78
2022/09/16 11:23:57;;;;;;;22.42;4.43;;;;;;;;;;5090588;28;20040;-78
2022/09/16 11:27:02;;;;;;;19.25;4.13;;;;;;;;;;5076992;28;20052;-81
2022/09/16 11:30:18;;;;;;;22.45;4.53;;;;;;;;;;5090133;28;20068;-79
2022/09/16 11:33:41;;;;;;;16.50;3.88;;;;;;;;;;5089524;28;20048;-77
2022/09/16 11:36:51;;;;;;;23.83;4.65;;;;;;;;;;5090351;28;20040;-76
2022/09/16 11:39:58;;;;;;;28.48;5.30;;;;;;;;;;5091898;28;20171;-79
2022/09/16 11:43:35;;;;;;;19.42;4.13;;;;;;;;;;5094656;28;20043;-76
2022/09/16 11:47:05;;;;;;;22.65;5.03;;;;;;;;;;5093358;28;20064;-77
2022/09/16 11:50:19;;;;;;;18.65;4.30;;;;;;;;;;5094382;28;20032;-78
2022/09/16 11:53:58;;;;;;;20.50;4.32;;;;;;;;;;5094439;28;20044;-78
2022/09/16 11:57:05;;;;;;;39.75;17.10;;;;;;;;;;5079903;28;20036;-76
2022/09/16 12:00:12;;;;;;;20.30;4.88;;;;;;;;;;5094267;28;20479;-78
2022/09/16 12:03:19;;;;;;;17.42;4.13;;;;;;;;;;5094319;28;20384;-77
2022/09/16 12:06:24;;;;;;;16.20;4.30;;;;;;;;;;5093975;28;20539;-78
2022/09/16 12:09:31;;;;;;;23.65;4.95;;;;;;;;;;5094090;28;20024;-77
2022/09/16 12:12:38;;;;;;;23.88;4.57;;;;;;;;;;5093252;28;20052;-74
2022/09/16 12:15:49;;;;;;;21.08;4.03;;;;;;;;;;5094283;28;20399;-79
2022/09/16 12:18:56;;;;;;;16.45;4.30;;;;;;;;;;5092941;28;20040;-76
2022/09/16 12:22:09;;;;;;;15.77;4.22;;;;;;;;;;5091147;28;20399;-77
2022/09/16 12:25:40;;;;;;;15.25;3.70;;;;;;;;;;5092632;28;20036;-76
2022/09/16 12:28:44;;;;;;;19.40;4.00;;;;;;;;;;5093232;28;19916;-77
2022/09/16 12:31:50;;;;;;;20.17;4.68;;;;;;;;;;5093608;28;20040;-76
2022/09/16 12:34:57;;;;;;;26.30;5.13;;;;;;;;;;5093298;28;20047;-76
2022/09/16 12:38:02;;;;;;;23.95;4.82;;;;;;;;;;5093223;28;20040;-76
2022/09/16 12:41:06;;;;;;;20.08;4.97;;;;;;;;;;5093476;28;20045;-78
2022/09/16 12:44:13;;;;;;;16.33;4.32;;;;;;;;;;5092390;28;20040;-77
2022/09/16 12:47:21;;;;;;;17.05;3.70;;;;;;;;;;5092602;28;20048;-74
2022/09/16 12:50:44;;;;;;;20.38;4.25;;;;;;;;;;5093411;28;20040;-77
2022/09/16 12:53:51;;;;;;;17.10;3.65;;;;;;;;;;5092527;28;20040;-76
2022/09/16 12:57:14;;;;;;;31.95;6.20;;;;;;;;;;5092971;28;20400;-77
2022/09/16 13:00:22;;;;;;;16.45;3.45;;;;;;;;;;5092086;28;20032;-76
2022/09/16 13:03:27;;;;;;;14.85;3.92;;;;;;;;;;5092842;28;20036;-76
2022/09/16 13:06:37;;;;;;;18.17;3.58;;;;;;;;;;5092768;28;20069;-77
2022/09/16 13:09:44;;;;;;;17.50;3.70;;;;;;;;;;5092709;28;20397;-76
2022/09/16 13:12:53;;;;;;;19.98;3.97;;;;;;;;;;5092758;28;20040;-78
2022/09/16 13:15:59;;;;;;;18.65;3.80;;;;;;;;;;5092827;28;20046;-77
2022/09/16 13:19:06;;;;;;;10.70;3.33;;;;;;;;;;5092492;28;20047;-76
2022/09/16 13:22:10;;;;;;;17.00;3.95;;;;;;;;;;5092366;28;20036;-76
2022/09/16 13:25:18;;;;;;;16.00;3.70;;;;;;;;;;5091114;28;20036;-74
2022/09/16 13:28:24;;;;;;;16.00;3.40;;;;;;;;;;5092444;28;20052;-77
2022/09/16 13:31:30;;;;;;;19.27;3.97;;;;;;;;;;5091709;28;20028;-78
2022/09/16 13:34:34;;;;;;;20.65;3.83;;;;;;;;;;5092276;28;20547;-83
2022/09/16 13:37:38;;;;;;;18.77;4.00;;;;;;;;;;5091763;28;20031;-78
2022/09/16 13:41:01;;;;;;;19.23;3.83;;;;;;;;;;5092362;28;20040;-80
2022/09/16 13:44:26;;;;;;;15.30;3.25;;;;;;;;;;5091694;28;20205;-78
2022/09/16 13:47:39;;;;;;;14.18;4.00;;;;;;;;;;5090866;28;20048;-78
2022/09/16 13:50:45;;;;;;;17.25;4.07;;;;;;;;;;5092004;28;20044;-83
2022/09/16 13:53:50;;;;;;;24.02;5.30;;;;;;;;;;5092048;28;20047;-79
2022/09/16 13:56:54;;;;;;;20.30;5.25;;;;;;;;;;5091945;28;20404;-79
2022/09/16 14:00:11;;;;;;;17.98;3.92;;;;;;;;;;5091707;28;20503;-78
2022/09/16 14:03:15;;;;;;;17.90;3.88;;;;;;;;;;5091983;28;20044;-78
2022/09/16 14:06:38;;;;;;;23.83;4.07;;;;;;;;;;5091743;28;20040;-81
2022/09/16 14:09:48;;;;;;;27.02;4.55;;;;;;;;;;5091726;28;20040;-77
2022/09/16 14:12:52;;;;;;;23.65;3.75;;;;;;;;;;5091585;28;20043;-78
2022/09/16 14:15:58;;;;;;;21.33;4.15;;;;;;;;;;5091472;28;20043;-81
2022/09/16 14:19:07;;;;;;;21.23;4.00;;;;;;;;;;5090755;28;20043;-81
2022/09/16 14:22:11;;;;;;;21.77;3.88;;;;;;;;;;5091541;28;20032;-80
2022/09/16 14:25:26;;;;;;;15.25;3.42;;;;;;;;;;5091704;28;20043;-81
2022/09/16 14:28:30;;;;;;;24.77;4.43;;;;;;;;;;5091194;28;20044;-80
2022/09/16 14:31:36;;;;;;;15.80;3.78;;;;;;;;;;5090700;28;20028;-78
2022/09/16 14:34:41;;;;;;;23.40;4.57;;;;;;;;;;5090746;28;20027;-78
2022/09/16 14:37:47;;;;;;;22.67;4.32;;;;;;;;;;5090741;28;20028;-81
2022/09/16 14:40:51;;;;;;;22.35;3.53;;;;;;;;;;5091075;28;20053;-76
2022/09/16 14:43:57;;;;;;;25.67;4.00;;;;;;;;;;5090673;28;20532;-82
2022/09/16 14:47:14;;;;;;;20.08;4.03;;;;;;;;;;5090130;28;20052;-74
2022/09/16 14:50:39;;;;;;;21.13;4.15;;;;;;;;;;5090496;28;20039;-77
2022/09/16 14:53:52;;;;;;;14.90;3.67;;;;;;;;;;5090753;28;20035;-73
2022/09/16 14:57:07;;;;;;;18.88;3.70;;;;;;;;;;5090840;28;20131;-72
2022/09/16 15:00:16;;;;;;;22.30;3.85;;;;;;;;;;5090934;28;20091;-72
2022/09/16 15:03:27;;;;;;;18.00;3.97;;;;;;;;;;5091190;28;20047;-74
2022/09/16 15:06:33;;;;;;;20.30;3.67;;;;;;;;;;5090772;28;20048;-74
2022/09/16 15:09:42;;;;;;;18.48;3.50;;;;;;;;;;5090731;28;20043;-76
2022/09/16 15:12:49;;;;;;;16.30;3.85;;;;;;;;;;5091048;28;20032;-75
2022/09/16 15:15:55;;;;;;;18.33;3.97;;;;;;;;;;5093266;28;20036;-79
2022/09/16 15:19:01;;;;;;;18.63;4.43;;;;;;;;;;5095107;28;20059;-80
2022/09/16 15:22:08;;;;;;;22.10;3.72;;;;;;;;;;5093798;28;20040;-75
2022/09/16 15:25:27;;;;;;;18.83;3.65;;;;;;;;;;5094616;28;20304;-76
2022/09/16 15:28:32;;;;;;;15.63;3.55;;;;;;;;;;5094129;28;20059;-76
2022/09/16 15:31:39;;;;;;;16.80;4.63;;;;;;;;;;5094295;28;20047;-76
2022/09/16 15:34:44;;;;;;;15.93;3.33;;;;;;;;;;5094157;28;20040;-75
2022/09/16 15:37:49;;;;;;;16.55;3.35;;;;;;;;;;5094280;28;20044;-76
2022/09/16 15:41:01;;;;;;;30.75;4.47;;;;;;;;;;5094514;28;20040;-76
2022/09/16 15:44:08;;;;;;;19.77;4.05;;;;;;;;;;5094461;28;20388;-76
2022/09/16 15:47:25;;;;;;;17.02;3.47;;;;;;;;;;5093966;28;20048;-76
2022/09/16 15:50:37;;;;;;;17.88;4.35;;;;;;;;;;5094082;28;20036;-75
2022/09/16 15:53:44;;;;;;;20.13;4.55;;;;;;;;;;5093926;28;20496;-75
2022/09/16 15:57:08;;;;;;;18.27;3.42;;;;;;;;;;5093729;28;20024;-72
2022/09/16 16:00:15;;;;;;;19.80;4.00;;;;;;;;;;5092397;28;20044;-76
2022/09/16 16:03:20;;;;;;;14.88;3.28;;;;;;;;;;5080244;28;20421;-74
2022/09/16 16:06:43;;;;;;;12.18;3.03;;;;;;;;;;5093127;28;20044;-73
2022/09/16 16:09:47;;;;;;;18.42;3.95;;;;;;;;;;5093214;28;20036;-74
2022/09/16 16:12:53;;;;;;;14.32;3.15;;;;;;;;;;5093638;28;20043;-72
2022/09/16 16:15:57;;;;;;;19.27;3.22;;;;;;;;;;5093618;28;20510;-71
2022/09/16 16:19:02;;;;;;;11.68;3.25;;;;;;;;;;5093492;28;20040;-73
2022/09/16 16:22:07;;;;;;;20.30;4.05;;;;;;;;;;5093721;28;20051;-79
2022/09/16 16:25:12;;;;;;;13.45;3.10;;;;;;;;;;5091792;28;20032;-77
2022/09/16 16:28:16;;;;;;;11.43;2.95;;;;;;;;;;5091074;28;20056;-76
2022/09/16 16:31:21;;;;;;;16.00;3.20;;;;;;;;;;5092557;28;20043;-79
2022/09/16 16:34:25;;;;;;;19.48;4.45;;;;;;;;;;5093161;28;20043;-80
2022/09/16 16:37:30;;;;;;;10.80;2.53;;;;;;;;;;5092936;28;20044;-77
2022/09/16 16:40:34;;;;;;;14.18;2.80;;;;;;;;;;5093442;28;20048;-79
2022/09/16 16:43:39;;;;;;;9.25;2.67;;;;;;;;;;5092653;28;20032;-78
2022/09/16 16:46:43;;;;;;;17.58;4.22;;;;;;;;;;5092875;28;20052;-79
2022/09/16 16:49:49;;;;;;;21.42;4.10;;;;;;;;;;5092912;28;20401;-81
2022/09/16 16:52:54;;;;;;;12.40;3.83;;;;;;;;;;5092025;28;20048;-81
2022/09/16 16:56:03;;;;;;;15.55;3.42;;;;;;;;;;5091380;28;20032;-83
2022/09/16 16:59:08;;;;;;;15.45;3.33;;;;;;;;;;5092557;28;20049;-79
2022/09/16 17:02:13;;;;;;;11.05;3.13;;;;;;;;;;5092739;28;20036;-78
2022/09/16 17:05:17;;;;;;;12.60;2.90;;;;;;;;;;5092452;28;20036;-78
2022/09/16 17:08:22;;;;;;;9.32;2.83;;;;;;;;;;5091611;28;20044;-83
2022/09/16 17:11:27;;;;;;;10.40;2.63;;;;;;;;;;5092729;28;20032;-82
2022/09/16 17:14:32;;;;;;;9.88;2.53;;;;;;;;;;5091388;28;20049;-80
2022/09/16 17:17:36;;;;;;;10.77;4.13;;;;;;;;;;5091447;28;20472;-79
2022/09/16 17:20:40;;;;;;;15.82;3.15;;;;;;;;;;5091873;28;20079;-81
2022/09/16 17:23:45;;;;;;;11.20;2.63;;;;;;;;;;5091060;28;20032;-79
2022/09/16 17:26:50;;;;;;;13.57;3.28;;;;;;;;;;5091195;28;20059;-82
2022/09/16 17:29:54;;;;;;;14.60;2.97;;;;;;;;;;5091584;28;20050;-79
2022/09/16 17:32:58;;;;;;;16.08;3.75;;;;;;;;;;5092169;28;20036;-83
2022/09/16 17:36:06;;;;;;;16.42;3.17;;;;;;;;;;5092302;28;20451;-81
2022/09/16 17:39:13;;;;;;;15.43;3.40;;;;;;;;;;5067849;28;20036;-81
2022/09/16 17:42:19;;;;;;;12.32;2.60;;;;;;;;;;5091984;28;20036;-83
2022/09/16 17:45:23;;;;;;;16.58;3.55;;;;;;;;;;5091920;28;20079;-79
2022/09/16 17:48:28;;;;;;;17.48;3.20;;;;;;;;;;5091516;28;20404;-79
2022/09/16 17:51:32;;;;;;;20.52;3.90;;;;;;;;;;5091819;28;20217;-79
2022/09/16 17:54:37;;;;;;;13.10;3.22;;;;;;;;;;5091606;28;20040;-79
2022/09/16 17:57:41;;;;;;;16.08;4.05;;;;;;;;;;5091766;28;20032;-77
2022/09/16 18:00:45;;;;;;;17.65;4.43;;;;;;;;;;5091702;28;20039;-79
2022/09/16 18:03:51;;;;;;;19.48;5.18;;;;;;;;;;5078876;28;20032;-78
2022/09/16 18:06:55;;;;;;;21.30;7.35;;;;;;;;;;5091070;28;20052;-78
2022/09/16 18:10:00;;;;;;;18.25;6.93;;;;;;;;;;5091595;28;20044;-77
2022/09/16 18:13:04;;;;;;;14.90;4.93;;;;;;;;;;5091445;28;20493;-76
2022/09/16 18:16:13;;;;;;;16.60;3.97;;;;;;;;;;5090997;28;20399;-78
2022/09/16 18:19:17;;;;;;;13.30;4.10;;;;;;;;;;5090256;28;20040;-78
2022/09/16 18:22:22;;;;;;;12.50;4.07;;;;;;;;;;5089290;28;20036;-74
2022/09/16 18:25:26;;;;;;;13.18;4.03;;;;;;;;;;5091301;28;20046;-74
2022/09/16 18:28:31;;;;;;;9.95;3.40;;;;;;;;;;5090036;28;20044;-74
2022/09/16 18:31:35;;;;;;;20.70;3.85;;;;;;;;;;5089686;28;20031;-74